| time (UTC) | temp C | wind direction | speed KPH | gust KPH | rain 1hr cm | rain 24hr cm | rain mn cm | humidity % | barometer mb |
| 20260505181059 | 25 | 251 | 3.2 | 8.0 | 0.00 | 0.00 | 0.00 | 37 | 1017.5 |
| 20260505180038 | 26 | 308 | 3.2 | 9.7 | 0.00 | 0.00 | 0.00 | 34 | 1017.6 |
| 20260505175039 | 26 | 269 | 3.2 | 6.4 | 0.00 | 0.00 | 0.00 | 35 | 1017.7 |
| 20260505174038 | 25 | 252 | 3.2 | 6.4 | 0.00 | 0.00 | 0.00 | 35 | 1017.6 |
| 20260505173038 | 25 | 315 | 3.2 | 11.3 | 0.00 | 0.00 | 0.00 | 35 | 1017.8 |
| 20260505172038 | 25 | 231 | 3.2 | 9.7 | 0.00 | 0.00 | 0.00 | 36 | 1018.2 |
| 20260505171038 | 25 | 291 | 6.4 | 12.9 | 0.00 | 0.00 | 0.00 | 35 | 1018.2 |
| 20260505170039 | 25 | 190 | 4.8 | 9.7 | 0.00 | 0.00 | 0.00 | 36 | 1018.5 |
| 20260505165039 | 25 | 148 | 3.2 | 8.0 | 0.00 | 0.00 | 0.00 | 36 | 1018.7 |
| 20260505164039 | 25 | 287 | 4.8 | 8.0 | 0.00 | 0.00 | 0.00 | 38 | 1018.7 |
| 20260505163059 | 24 | 280 | 4.8 | 12.9 | 0.00 | 0.00 | 0.00 | 37 | 1018.8 |
| 20260505162039 | 24 | 254 | 4.8 | 9.7 | 0.00 | 0.00 | 0.00 | 37 | 1018.7 |
| 20260505161039 | 24 | 280 | 4.8 | 14.5 | 0.00 | 0.00 | 0.00 | 37 | 1018.7 |
| 20260505153059 | 23 | 151 | 6.4 | 12.9 | 0.00 | 0.00 | 0.00 | 39 | 1018.8 |
| 20260505152039 | 23 | 159 | 4.8 | 9.7 | 0.00 | 0.00 | 0.00 | 39 | 1018.7 |
| 20260505151038 | 23 | 317 | 3.2 | 9.7 | 0.00 | 0.00 | 0.00 | 41 | 1018.7 |
| 20260505125038 | 15 | 340 | 1.6 | 3.2 | 0.00 | 0.00 | 0.00 | 74 | 1018.8 |
| 20260505124059 | 14 | 0.0 | 1.6 | 0.00 | 0.00 | 0.00 | 76 | 1018.8 | |
| 20260505123038 | 13 | 340 | 1.6 | 3.2 | 0.00 | 0.00 | 0.00 | 77 | 1018.8 |
| 20260505122038 | 13 | 60 | 3.2 | 8.0 | 0.00 | 0.00 | 0.00 | 78 | 1018.7 |
| 20260505121119 | 12 | 159 | 1.6 | 4.8 | 0.00 | 0.00 | 0.00 | 82 | 1018.8 |
| 20260505120038 | 11 | 346 | 3.2 | 6.4 | 0.00 | 0.00 | 0.00 | 85 | 1018.7 |
| 20260505115038 | 10 | 16 | 1.6 | 4.8 | 0.00 | 0.00 | 0.00 | 91 | 1018.6 |
| 20260505114038 | 9 | 230 | 1.6 | 4.8 | 0.00 | 0.00 | 0.00 | 92 | 1018.5 |
| 20260505113038 | 8 | 174 | 1.6 | 6.4 | 0.00 | 0.00 | 0.00 | 93 | 1018.4 |
| 20260505112038 | 8 | 337 | 3.2 | 4.8 | 0.00 | 0.00 | 0.00 | 93 | 1018.1 |
| 20260505111038 | 8 | 322 | 1.6 | 4.8 | 0.00 | 0.00 | 0.00 | 93 | 1017.9 |
| 20260505102037 | 8 | 259 | 1.6 | 9.7 | 0.00 | 0.00 | 0.00 | 91 | 1018.0 |
| 20260505101037 | 8 | 360 | 3.2 | 9.7 | 0.00 | 0.00 | 0.00 | 90 | 1018.0 |
| 20260505100037 | 8 | 284 | 1.6 | 6.4 | 0.00 | 0.00 | 0.00 | 90 | 1018.0 |
| 20260505095038 | 9 | 323 | 3.2 | 6.4 | 0.00 | 0.00 | 0.00 | 90 | 1017.9 |
| 20260505094038 | 9 | 357 | 0.0 | 4.8 | 0.00 | 0.00 | 0.00 | 89 | 1018.0 |
| 20260505093058 | 9 | 146 | 1.6 | 4.8 | 0.00 | 0.00 | 0.00 | 88 | 1018.1 |
| 20260505092037 | 10 | 1 | 4.8 | 6.4 | 0.00 | 0.00 | 0.00 | 87 | 1018.1 |
| 20260505091038 | 10 | 331 | 3.2 | 6.4 | 0.00 | 0.00 | 0.00 | 88 | 1017.8 |
| 20260505090037 | 10 | 315 | 1.6 | 6.4 | 0.00 | 0.00 | 0.00 | 87 | 1017.7 |
| 20260505085037 | 10 | 360 | 3.2 | 8.0 | 0.00 | 0.00 | 0.00 | 86 | 1017.8 |
| 20260505084037 | 10 | 280 | 3.2 | 4.8 | 0.00 | 0.00 | 0.00 | 85 | 1017.7 |
| 20260505083058 | 10 | 270 | 1.6 | 4.8 | 0.00 | 0.00 | 0.00 | 85 | 1017.6 |
| 20260505082037 | 10 | 323 | 1.6 | 6.4 | 0.00 | 0.00 | 0.00 | 84 | 1017.6 |
| 20260505081037 | 11 | 309 | 3.2 | 6.4 | 0.00 | 0.00 | 0.00 | 83 | 1017.6 |
| 20260505080038 | 11 | 178 | 1.6 | 4.8 | 0.00 | 0.00 | 0.00 | 81 | 1017.5 |
| 20260505075038 | 11 | 349 | 1.6 | 4.8 | 0.00 | 0.00 | 0.00 | 80 | 1017.4 |
| 20260505074058 | 12 | 328 | 1.6 | 4.8 | 0.00 | 0.00 | 0.00 | 78 | 1017.4 |
| 20260505073038 | 12 | 0.0 | 3.2 | 0.00 | 0.00 | 0.00 | 77 | 1017.4 | |
| 20260505072037 | 13 | 51 | 0.0 | 3.2 | 0.00 | 0.00 | 0.00 | 75 | 1017.5 |
| 20260505071037 | 13 | 341 | 3.2 | 4.8 | 0.00 | 0.00 | 0.00 | 70 | 1017.5 |
| 20260505070037 | 14 | 314 | 1.6 | 4.8 | 0.00 | 0.00 | 0.00 | 67 | 1017.4 |
| 20260505065038 | 15 | 251 | 1.6 | 4.8 | 0.00 | 0.00 | 0.00 | 66 | 1017.4 |
| 20260505064038 | 16 | 298 | 3.2 | 8.0 | 0.00 | 0.00 | 0.00 | 63 | 1017.2 |
| 20260505063058 | 16 | 300 | 3.2 | 9.7 | 0.00 | 0.00 | 0.00 | 56 | 1017.2 |
| 20260505062038 | 17 | 306 | 3.2 | 6.4 | 0.00 | 0.00 | 0.00 | 58 | 1017.3 |
| 20260505061038 | 17 | 272 | 3.2 | 12.9 | 0.00 | 0.00 | 0.00 | 57 | 1017.2 |
| 20260505060058 | 17 | 288 | 3.2 | 6.4 | 0.00 | 0.00 | 0.00 | 55 | 1017.2 |
| 20260505055038 | 18 | 291 | 3.2 | 9.7 | 0.00 | 0.00 | 0.00 | 53 | 1017.2 |
| 20260505054037 | 17 | 317 | 4.8 | 16.1 | 0.00 | 0.00 | 0.00 | 54 | 1017.3 |
| 20260505053037 | 17 | 341 | 4.8 | 11.3 | 0.00 | 0.00 | 0.00 | 58 | 1017.1 |
| 20260505052038 | 16 | 256 | 4.8 | 8.0 | 0.00 | 0.00 | 0.00 | 61 | 1017.1 |
| 20260505051037 | 16 | 284 | 1.6 | 4.8 | 0.00 | 0.00 | 0.00 | 64 | 1017.3 |
| 20260505041037 | 12 | 325 | 1.6 | 4.8 | 0.00 | 0.00 | 0.00 | 81 | 1017.1 |
| 20260505040038 | 12 | 266 | 1.6 | 4.8 | 0.00 | 0.00 | 0.00 | 81 | 1017.0 |
| 20260505035038 | 12 | 318 | 3.2 | 6.4 | 0.00 | 0.00 | 0.00 | 80 | 1016.9 |
| 20260505034037 | 13 | 304 | 1.6 | 6.4 | 0.00 | 0.00 | 0.00 | 80 | 1017.0 |
| 20260505033037 | 13 | 290 | 3.2 | 6.4 | 0.00 | 0.00 | 0.00 | 78 | 1017.1 |
| 20260505032037 | 13 | 307 | 3.2 | 30.6 | 0.00 | 0.00 | 0.00 | 78 | 1017.3 |
| 20260505031037 | 13 | 248 | 1.6 | 4.8 | 0.00 | 0.00 | 0.00 | 78 | 1017.2 |
| 20260505030038 | 13 | 323 | 1.6 | 4.8 | 0.00 | 0.00 | 0.00 | 77 | 1017.2 |
| 20260505025038 | 14 | 321 | 1.6 | 6.4 | 0.00 | 0.00 | 0.00 | 75 | 1017.4 |
| 20260505024038 | 14 | 291 | 1.6 | 3.2 | 0.00 | 0.00 | 0.00 | 74 | 1017.5 |
| 20260505023058 | 15 | 295 | 0.0 | 3.2 | 0.00 | 0.00 | 0.00 | 73 | 1017.5 |
| 20260505022037 | 15 | 290 | 1.6 | 3.2 | 0.00 | 0.00 | 0.00 | 72 | 1017.5 |
| 20260505021038 | 15 | 316 | 1.6 | 4.8 | 0.00 | 0.00 | 0.00 | 70 | 1017.4 |
| 20260505020037 | 16 | 88 | 0.0 | 3.2 | 0.00 | 0.00 | 0.00 | 68 | 1017.3 |
| 20260505015037 | 17 | 330 | 1.6 | 4.8 | 0.00 | 0.00 | 0.00 | 66 | 1017.2 |
| 20260505014037 | 17 | 257 | 1.6 | 6.4 | 0.00 | 0.00 | 0.00 | 65 | 1017.0 |
| 20260505013037 | 17 | 336 | 1.6 | 3.2 | 0.00 | 0.00 | 0.00 | 66 | 1017.0 |
| 20260505012037 | 17 | 298 | 3.2 | 6.4 | 0.00 | 0.00 | 0.00 | 63 | 1016.9 |
| 20260505011037 | 17 | 333 | 1.6 | 3.2 | 0.00 | 0.00 | 0.00 | 64 | 1016.9 |
| 20260505010038 | 18 | 285 | 1.6 | 3.2 | 0.00 | 0.00 | 0.00 | 63 | 1016.8 |
| 20260505005038 | 18 | 279 | 0.0 | 3.2 | 0.00 | 0.00 | 0.00 | 60 | 1016.7 |
| 20260505004038 | 20 | 275 | 3.2 | 3.2 | 0.00 | 0.00 | 0.00 | 56 | 1016.7 |
| 20260505003038 | 20 | 282 | 3.2 | 6.4 | 0.00 | 0.00 | 0.00 | 52 | 1016.5 |
| 20260505002038 | 21 | 287 | 3.2 | 4.8 | 0.00 | 0.00 | 0.00 | 49 | 1016.5 |
| 20260505001038 | 21 | 283 | 3.2 | 6.4 | 0.00 | 0.00 | 0.00 | 48 | 1016.4 |
| 20260505000037 | 21 | 302 | 3.2 | 6.4 | 0.00 | 0.00 | 0.00 | 48 | 1016.4 |
| 20260504235059 | 21 | 289 | 4.8 | 9.7 | 0.00 | 0.00 | 0.00 | 49 | 1016.3 |
| 20260504234038 | 22 | 284 | 3.2 | 6.4 | 0.00 | 0.00 | 0.00 | 49 | 1016.2 |
| 20260504233037 | 22 | 296 | 3.2 | 8.0 | 0.00 | 0.00 | 0.00 | 49 | 1016.1 |
| 20260504232037 | 22 | 314 | 4.8 | 6.4 | 0.00 | 0.00 | 0.00 | 49 | 1016.1 |
| 20260504231037 | 22 | 312 | 4.8 | 6.4 | 0.00 | 0.00 | 0.00 | 48 | 1016.1 |
| 20260504230037 | 23 | 289 | 3.2 | 4.8 | 0.00 | 0.00 | 0.00 | 47 | 1016.2 |
| 20260504225058 | 23 | 281 | 1.6 | 4.8 | 0.00 | 0.00 | 0.00 | 45 | 1016.1 |
| 20260504224057 | 24 | 291 | 3.2 | 6.4 | 0.00 | 0.00 | 0.00 | 43 | 1016.1 |
| 20260504223037 | 25 | 266 | 3.2 | 8.0 | 0.00 | 0.00 | 0.00 | 41 | 1016.1 |
| 20260504222058 | 25 | 295 | 3.2 | 9.7 | 0.00 | 0.00 | 0.00 | 41 | 1016.0 |
| 20260504221037 | 26 | 284 | 3.2 | 8.0 | 0.00 | 0.00 | 0.00 | 40 | 1016.0 |
| 20260504220058 | 26 | 266 | 3.2 | 6.4 | 0.00 | 0.00 | 0.00 | 40 | 1016.1 |
| 20260504215038 | 26 | 263 | 1.6 | 6.4 | 0.00 | 0.00 | 0.00 | 39 | 1016.1 |
| 20260504214038 | 26 | 187 | 3.2 | 6.4 | 0.00 | 0.00 | 0.00 | 39 | 1016.0 |
| 20260504213058 | 25 | 251 | 3.2 | 6.4 | 0.00 | 0.00 | 0.00 | 40 | 1016.0 |
| 20260504212038 | 26 | 196 | 4.8 | 9.7 | 0.00 | 0.00 | 0.00 | 38 | 1016.0 |
| 20260504211058 | 26 | 181 | 3.2 | 9.7 | 0.00 | 0.00 | 0.00 | 38 | 1016.2 |
| 20260504210037 | 26 | 155 | 4.8 | 9.7 | 0.00 | 0.00 | 0.00 | 38 | 1016.1 |
| 20260504205038 | 26 | 119 | 3.2 | 6.4 | 0.00 | 0.00 | 0.00 | 38 | 1016.3 |
| 20260504204038 | 26 | 225 | 4.8 | 9.7 | 0.00 | 0.00 | 0.00 | 38 | 1016.4 |
| 20260504203037 | 26 | 182 | 1.6 | 6.4 | 0.00 | 0.00 | 0.00 | 38 | 1016.4 |
| 20260504202037 | 25 | 300 | 4.8 | 11.3 | 0.00 | 0.00 | 0.00 | 38 | 1016.6 |
| 20260504201038 | 26 | 45 | 6.4 | 17.7 | 0.00 | 0.00 | 0.00 | 38 | 1016.7 |
| 20260504200057 | 25 | 117 | 3.2 | 11.3 | 0.00 | 0.00 | 0.00 | 39 | 1016.8 |
| 20260504195037 | 25 | 167 | 4.8 | 14.5 | 0.00 | 0.00 | 0.00 | 41 | 1016.9 |
| 20260504194037 | 25 | 241 | 3.2 | 16.1 | 0.00 | 0.00 | 0.00 | 41 | 1016.9 |
| 20260504193037 | 25 | 190 | 3.2 | 12.9 | 0.00 | 0.00 | 0.00 | 40 | 1017.2 |
| 20260504192037 | 25 | 172 | 3.2 | 8.0 | 0.00 | 0.00 | 0.00 | 39 | 1017.4 |
| 20260504191037 | 25 | 173 | 4.8 | 11.3 | 0.00 | 0.00 | 0.00 | 41 | 1017.6 |
| 20260504190038 | 25 | 181 | 3.2 | 12.9 | 0.00 | 0.00 | 0.00 | 41 | 1017.8 |
| 20260504185038 | 25 | 207 | 4.8 | 6.4 | 0.00 | 0.00 | 0.00 | 41 | 1018.0 |
| 20260504184038 | 25 | 242 | 3.2 | 9.7 | 0.00 | 0.00 | 0.00 | 39 | 1018.1 |
| 20260504183038 | 25 | 201 | 4.8 | 12.9 | 0.00 | 0.00 | 0.00 | 40 | 1018.3 |
| 20260504182058 | 25 | 207 | 3.2 | 6.4 | 0.00 | 0.00 | 0.00 | 40 | 1018.4 |